sensor_id;sensor_type;location;lat;lon;timestamp;temperature;humidity
20345;DHT22;10330;48.816;9.278;2023-08-07T00:00:55;12.60;99.90
20345;DHT22;10330;48.816;9.278;2023-08-07T00:03:21;12.60;99.90
20345;DHT22;10330;48.816;9.278;2023-08-07T00:05:48;12.50;99.90
20345;DHT22;10330;48.816;9.278;2023-08-07T00:08:14;12.50;99.90
20345;DHT22;10330;48.816;9.278;2023-08-07T00:10:40;12.50;99.90
20345;DHT22;10330;48.816;9.278;2023-08-07T00:13:07;12.70;99.90
20345;DHT22;10330;48.816;9.278;2023-08-07T00:15:33;12.60;99.90
20345;DHT22;10330;48.816;9.278;2023-08-07T00:18:00;12.60;99.90
20345;DHT22;10330;48.816;9.278;2023-08-07T00:20:26;12.60;99.90
20345;DHT22;10330;48.816;9.278;2023-08-07T00:22:52;12.60;99.90
20345;DHT22;10330;48.816;9.278;2023-08-07T00:25:19;12.60;99.90
20345;DHT22;10330;48.816;9.278;2023-08-07T00:27:45;12.60;99.90
20345;DHT22;10330;48.816;9.278;2023-08-07T00:30:11;12.60;99.90
20345;DHT22;10330;48.816;9.278;2023-08-07T00:32:38;12.60;99.90
20345;DHT22;10330;48.816;9.278;2023-08-07T00:35:05;12.60;99.90
20345;DHT22;10330;48.816;9.278;2023-08-07T00:37:31;12.60;99.90
20345;DHT22;10330;48.816;9.278;2023-08-07T00:39:58;12.60;99.90
20345;DHT22;10330;48.816;9.278;2023-08-07T00:42:24;12.70;99.90
20345;DHT22;10330;48.816;9.278;2023-08-07T00:44:50;12.60;99.90
20345;DHT22;10330;48.816;9.278;2023-08-07T00:47:16;12.60;99.90
20345;DHT22;10330;48.816;9.278;2023-08-07T00:49:43;12.60;99.90
20345;DHT22;10330;48.816;9.278;2023-08-07T00:52:10;12.60;99.90
20345;DHT22;10330;48.816;9.278;2023-08-07T00:54:37;12.60;99.90
20345;DHT22;10330;48.816;9.278;2023-08-07T00:57:13;12.70;99.90
20345;DHT22;10330;48.816;9.278;2023-08-07T00:59:44;12.60;99.90
20345;DHT22;10330;48.816;9.278;2023-08-07T01:02:12;12.60;99.90
20345;DHT22;10330;48.816;9.278;2023-08-07T01:04:40;12.70;99.90
20345;DHT22;10330;48.816;9.278;2023-08-07T01:07:06;12.70;99.90
20345;DHT22;10330;48.816;9.278;2023-08-07T01:09:32;12.70;99.90
20345;DHT22;10330;48.816;9.278;2023-08-07T01:12:20;12.70;99.90
20345;DHT22;10330;48.816;9.278;2023-08-07T01:14:59;12.70;99.90
20345;DHT22;10330;48.816;9.278;2023-08-07T01:17:28;12.70;99.90
20345;DHT22;10330;48.816;9.278;2023-08-07T01:19:55;12.60;99.90
20345;DHT22;10330;48.816;9.278;2023-08-07T01:22:22;12.80;99.90
20345;DHT22;10330;48.816;9.278;2023-08-07T01:24:50;12.70;99.90
20345;DHT22;10330;48.816;9.278;2023-08-07T01:33:10;12.70;99.90
20345;DHT22;10330;48.816;9.278;2023-08-07T01:35:43;12.80;99.90
20345;DHT22;10330;48.816;9.278;2023-08-07T01:38:11;12.70;99.90
20345;DHT22;10330;48.816;9.278;2023-08-07T01:40:39;12.70;99.90
20345;DHT22;10330;48.816;9.278;2023-08-07T01:43:06;12.80;99.90
20345;DHT22;10330;48.816;9.278;2023-08-07T01:45:34;12.70;99.90
20345;DHT22;10330;48.816;9.278;2023-08-07T01:48:00;12.80;99.90
20345;DHT22;10330;48.816;9.278;2023-08-07T01:50:26;12.80;99.90
20345;DHT22;10330;48.816;9.278;2023-08-07T01:52:53;12.70;99.90
20345;DHT22;10330;48.816;9.278;2023-08-07T01:55:22;12.70;99.90
20345;DHT22;10330;48.816;9.278;2023-08-07T01:57:52;12.80;99.90
20345;DHT22;10330;48.816;9.278;2023-08-07T02:00:19;12.80;99.90
20345;DHT22;10330;48.816;9.278;2023-08-07T02:02:45;12.70;99.90
20345;DHT22;10330;48.816;9.278;2023-08-07T02:05:13;12.70;99.90
20345;DHT22;10330;48.816;9.278;2023-08-07T02:07:40;12.70;99.90
20345;DHT22;10330;48.816;9.278;2023-08-07T02:10:07;12.70;99.90
20345;DHT22;10330;48.816;9.278;2023-08-07T02:12:33;12.70;99.90
20345;DHT22;10330;48.816;9.278;2023-08-07T02:15:00;12.70;99.90
20345;DHT22;10330;48.816;9.278;2023-08-07T02:17:29;12.70;99.90
20345;DHT22;10330;48.816;9.278;2023-08-07T02:19:57;12.70;99.90
20345;DHT22;10330;48.816;9.278;2023-08-07T02:22:23;12.70;99.90
20345;DHT22;10330;48.816;9.278;2023-08-07T02:24:50;12.70;99.90
20345;DHT22;10330;48.816;9.278;2023-08-07T02:27:16;12.70;99.90
20345;DHT22;10330;48.816;9.278;2023-08-07T02:29:44;12.70;99.90
20345;DHT22;10330;48.816;9.278;2023-08-07T02:32:10;12.70;99.90
20345;DHT22;10330;48.816;9.278;2023-08-07T02:34:36;12.70;99.90
20345;DHT22;10330;48.816;9.278;2023-08-07T02:37:02;12.70;99.90
20345;DHT22;10330;48.816;9.278;2023-08-07T02:39:28;12.60;99.90
20345;DHT22;10330;48.816;9.278;2023-08-07T02:41:54;12.60;99.90
20345;DHT22;10330;48.816;9.278;2023-08-07T02:44:21;12.60;99.90
20345;DHT22;10330;48.816;9.278;2023-08-07T02:46:47;12.60;99.90
20345;DHT22;10330;48.816;9.278;2023-08-07T02:49:13;12.50;99.90
20345;DHT22;10330;48.816;9.278;2023-08-07T02:51:39;12.60;99.90
20345;DHT22;10330;48.816;9.278;2023-08-07T02:54:05;12.50;99.90
20345;DHT22;10330;48.816;9.278;2023-08-07T02:56:31;12.50;99.90
20345;DHT22;10330;48.816;9.278;2023-08-07T02:58:58;12.50;99.90
20345;DHT22;10330;48.816;9.278;2023-08-07T03:01:25;12.50;99.90
20345;DHT22;10330;48.816;9.278;2023-08-07T03:03:53;12.50;99.90
20345;DHT22;10330;48.816;9.278;2023-08-07T03:06:19;12.50;99.90
20345;DHT22;10330;48.816;9.278;2023-08-07T03:08:45;12.50;99.90
20345;DHT22;10330;48.816;9.278;2023-08-07T03:11:12;12.50;99.90
20345;DHT22;10330;48.816;9.278;2023-08-07T03:13:38;12.50;99.90
20345;DHT22;10330;48.816;9.278;2023-08-07T03:16:05;12.40;99.90
20345;DHT22;10330;48.816;9.278;2023-08-07T03:18:32;12.50;99.90
20345;DHT22;10330;48.816;9.278;2023-08-07T03:20:59;12.50;99.90
20345;DHT22;10330;48.816;9.278;2023-08-07T03:23:27;12.50;99.90
20345;DHT22;10330;48.816;9.278;2023-08-07T03:26:06;12.50;99.90
20345;DHT22;10330;48.816;9.278;2023-08-07T03:28:34;12.50;99.90
20345;DHT22;10330;48.816;9.278;2023-08-07T03:31:01;12.50;99.90
20345;DHT22;10330;48.816;9.278;2023-08-07T03:33:30;12.40;99.90
20345;DHT22;10330;48.816;9.278;2023-08-07T03:35:57;12.50;99.90
20345;DHT22;10330;48.816;9.278;2023-08-07T03:38:23;12.60;99.90
20345;DHT22;10330;48.816;9.278;2023-08-07T03:40:52;12.50;99.90
20345;DHT22;10330;48.816;9.278;2023-08-07T03:43:18;12.50;99.90
20345;DHT22;10330;48.816;9.278;2023-08-07T03:45:44;12.50;99.90
20345;DHT22;10330;48.816;9.278;2023-08-07T03:48:11;12.60;99.90
20345;DHT22;10330;48.816;9.278;2023-08-07T03:50:37;12.50;99.90
20345;DHT22;10330;48.816;9.278;2023-08-07T03:53:04;12.40;99.90
20345;DHT22;10330;48.816;9.278;2023-08-07T03:55:35;12.50;99.90
20345;DHT22;10330;48.816;9.278;2023-08-07T03:58:02;12.50;99.90
20345;DHT22;10330;48.816;9.278;2023-08-07T04:00:28;12.50;99.90
20345;DHT22;10330;48.816;9.278;2023-08-07T04:02:55;12.60;99.90
20345;DHT22;10330;48.816;9.278;2023-08-07T04:05:21;12.50;99.90
20345;DHT22;10330;48.816;9.278;2023-08-07T04:07:47;12.50;99.90
20345;DHT22;10330;48.816;9.278;2023-08-07T04:10:13;12.50;99.90
20345;DHT22;10330;48.816;9.278;2023-08-07T04:12:39;12.50;99.90
20345;DHT22;10330;48.816;9.278;2023-08-07T04:15:06;12.50;99.90
20345;DHT22;10330;48.816;9.278;2023-08-07T04:17:32;12.50;99.90
20345;DHT22;10330;48.816;9.278;2023-08-07T04:19:59;12.50;99.90
20345;DHT22;10330;48.816;9.278;2023-08-07T04:22:25;12.50;99.90
20345;DHT22;10330;48.816;9.278;2023-08-07T04:24:51;12.50;99.90
20345;DHT22;10330;48.816;9.278;2023-08-07T04:27:17;12.50;99.90
20345;DHT22;10330;48.816;9.278;2023-08-07T04:29:43;12.50;99.90
20345;DHT22;10330;48.816;9.278;2023-08-07T04:32:09;12.60;99.90
20345;DHT22;10330;48.816;9.278;2023-08-07T04:34:36;12.60;99.90
20345;DHT22;10330;48.816;9.278;2023-08-07T04:37:02;12.60;99.90
20345;DHT22;10330;48.816;9.278;2023-08-07T04:39:28;12.60;99.90
20345;DHT22;10330;48.816;9.278;2023-08-07T04:41:54;12.60;99.90
20345;DHT22;10330;48.816;9.278;2023-08-07T04:44:21;12.50;99.90
20345;DHT22;10330;48.816;9.278;2023-08-07T04:46:47;12.60;99.90
20345;DHT22;10330;48.816;9.278;2023-08-07T04:49:13;12.60;99.90
20345;DHT22;10330;48.816;9.278;2023-08-07T04:51:39;12.60;99.90
20345;DHT22;10330;48.816;9.278;2023-08-07T04:54:05;12.60;99.90
20345;DHT22;10330;48.816;9.278;2023-08-07T04:56:31;12.60;99.90
20345;DHT22;10330;48.816;9.278;2023-08-07T04:58:57;12.60;99.90
20345;DHT22;10330;48.816;9.278;2023-08-07T05:01:23;12.60;99.90
20345;DHT22;10330;48.816;9.278;2023-08-07T05:03:50;12.60;99.90
20345;DHT22;10330;48.816;9.278;2023-08-07T05:06:16;12.80;99.90
20345;DHT22;10330;48.816;9.278;2023-08-07T05:08:42;12.70;99.90
20345;DHT22;10330;48.816;9.278;2023-08-07T05:11:08;12.70;99.90
20345;DHT22;10330;48.816;9.278;2023-08-07T05:13:34;12.70;99.90
20345;DHT22;10330;48.816;9.278;2023-08-07T05:16:00;12.70;99.90
20345;DHT22;10330;48.816;9.278;2023-08-07T05:18:26;12.70;99.90
20345;DHT22;10330;48.816;9.278;2023-08-07T05:20:53;12.70;99.90
20345;DHT22;10330;48.816;9.278;2023-08-07T05:25:54;12.70;99.90
20345;DHT22;10330;48.816;9.278;2023-08-07T05:28:20;12.80;99.90
20345;DHT22;10330;48.816;9.278;2023-08-07T05:30:46;12.80;99.90
20345;DHT22;10330;48.816;9.278;2023-08-07T05:33:12;12.80;99.90
20345;DHT22;10330;48.816;9.278;2023-08-07T05:35:41;12.80;99.90
20345;DHT22;10330;48.816;9.278;2023-08-07T05:38:07;12.80;99.90
20345;DHT22;10330;48.816;9.278;2023-08-07T05:40:34;12.90;99.90
20345;DHT22;10330;48.816;9.278;2023-08-07T05:43:03;13.00;99.90
20345;DHT22;10330;48.816;9.278;2023-08-07T05:45:29;13.00;99.90
20345;DHT22;10330;48.816;9.278;2023-08-07T05:47:55;13.00;99.90
20345;DHT22;10330;48.816;9.278;2023-08-07T05:50:21;13.00;99.90
20345;DHT22;10330;48.816;9.278;2023-08-07T05:52:47;13.10;99.90
20345;DHT22;10330;48.816;9.278;2023-08-07T05:55:13;13.10;99.90
20345;DHT22;10330;48.816;9.278;2023-08-07T05:57:40;13.10;99.90
20345;DHT22;10330;48.816;9.278;2023-08-07T06:00:06;13.20;99.90
20345;DHT22;10330;48.816;9.278;2023-08-07T06:02:40;13.20;99.90
20345;DHT22;10330;48.816;9.278;2023-08-07T06:05:06;13.20;99.90
20345;DHT22;10330;48.816;9.278;2023-08-07T06:07:33;13.30;99.90
20345;DHT22;10330;48.816;9.278;2023-08-07T06:09:59;13.30;99.90
20345;DHT22;10330;48.816;9.278;2023-08-07T06:12:25;13.30;99.90
20345;DHT22;10330;48.816;9.278;2023-08-07T06:14:51;13.30;99.90
20345;DHT22;10330;48.816;9.278;2023-08-07T06:17:21;13.30;99.90
20345;DHT22;10330;48.816;9.278;2023-08-07T06:19:47;13.40;99.90
20345;DHT22;10330;48.816;9.278;2023-08-07T06:22:13;13.40;99.90
20345;DHT22;10330;48.816;9.278;2023-08-07T06:24:39;13.40;99.90
20345;DHT22;10330;48.816;9.278;2023-08-07T06:27:05;13.40;99.90
20345;DHT22;10330;48.816;9.278;2023-08-07T06:29:32;13.40;99.90
20345;DHT22;10330;48.816;9.278;2023-08-07T06:31:58;13.50;99.90
20345;DHT22;10330;48.816;9.278;2023-08-07T06:34:24;13.50;99.90
20345;DHT22;10330;48.816;9.278;2023-08-07T06:36:50;13.60;99.90
20345;DHT22;10330;48.816;9.278;2023-08-07T06:39:16;13.70;99.90
20345;DHT22;10330;48.816;9.278;2023-08-07T06:41:42;13.70;99.90
20345;DHT22;10330;48.816;9.278;2023-08-07T06:44:10;13.80;99.90
20345;DHT22;10330;48.816;9.278;2023-08-07T06:46:36;14.00;99.90
20345;DHT22;10330;48.816;9.278;2023-08-07T06:49:02;14.00;99.90
20345;DHT22;10330;48.816;9.278;2023-08-07T06:51:28;14.10;99.90
20345;DHT22;10330;48.816;9.278;2023-08-07T06:53:55;14.10;99.90
20345;DHT22;10330;48.816;9.278;2023-08-07T06:56:21;14.10;99.90
20345;DHT22;10330;48.816;9.278;2023-08-07T06:58:47;14.20;99.90
20345;DHT22;10330;48.816;9.278;2023-08-07T07:01:14;14.00;99.90
20345;DHT22;10330;48.816;9.278;2023-08-07T07:03:40;14.00;99.90
20345;DHT22;10330;48.816;9.278;2023-08-07T07:06:06;14.10;99.90
20345;DHT22;10330;48.816;9.278;2023-08-07T07:08:32;14.00;99.90
20345;DHT22;10330;48.816;9.278;2023-08-07T07:10:58;14.00;99.90
20345;DHT22;10330;48.816;9.278;2023-08-07T07:13:25;14.10;99.90
20345;DHT22;10330;48.816;9.278;2023-08-07T07:15:55;14.10;99.90
20345;DHT22;10330;48.816;9.278;2023-08-07T07:18:29;14.50;99.90
20345;DHT22;10330;48.816;9.278;2023-08-07T07:20:59;14.50;99.90
20345;DHT22;10330;48.816;9.278;2023-08-07T07:23:26;14.60;99.90
20345;DHT22;10330;48.816;9.278;2023-08-07T07:25:53;14.70;99.90
20345;DHT22;10330;48.816;9.278;2023-08-07T07:28:19;14.60;99.90
20345;DHT22;10330;48.816;9.278;2023-08-07T07:30:46;14.70;99.90
20345;DHT22;10330;48.816;9.278;2023-08-07T07:33:14;14.80;99.90
20345;DHT22;10330;48.816;9.278;2023-08-07T07:35:43;14.70;99.90
20345;DHT22;10330;48.816;9.278;2023-08-07T07:38:10;14.70;99.90
20345;DHT22;10330;48.816;9.278;2023-08-07T07:40:36;14.80;99.90
20345;DHT22;10330;48.816;9.278;2023-08-07T07:43:03;14.60;99.90
20345;DHT22;10330;48.816;9.278;2023-08-07T07:45:29;14.70;99.90
20345;DHT22;10330;48.816;9.278;2023-08-07T07:47:55;14.70;99.90
20345;DHT22;10330;48.816;9.278;2023-08-07T07:50:22;14.70;99.90
20345;DHT22;10330;48.816;9.278;2023-08-07T07:52:48;14.90;99.90
20345;DHT22;10330;48.816;9.278;2023-08-07T07:55:14;14.80;99.90
20345;DHT22;10330;48.816;9.278;2023-08-07T07:57:41;14.80;99.90
20345;DHT22;10330;48.816;9.278;2023-08-07T08:00:10;14.80;99.90
20345;DHT22;10330;48.816;9.278;2023-08-07T08:02:39;14.80;99.90
20345;DHT22;10330;48.816;9.278;2023-08-07T08:05:09;14.80;99.90
20345;DHT22;10330;48.816;9.278;2023-08-07T08:07:39;14.80;99.90
20345;DHT22;10330;48.816;9.278;2023-08-07T08:10:07;14.90;99.90
20345;DHT22;10330;48.816;9.278;2023-08-07T08:12:35;14.90;99.90
20345;DHT22;10330;48.816;9.278;2023-08-07T08:15:02;14.90;99.90
20345;DHT22;10330;48.816;9.278;2023-08-07T08:17:28;14.80;99.90
20345;DHT22;10330;48.816;9.278;2023-08-07T08:19:55;14.80;99.90
20345;DHT22;10330;48.816;9.278;2023-08-07T08:22:21;14.80;99.90
20345;DHT22;10330;48.816;9.278;2023-08-07T08:24:47;14.80;99.90
20345;DHT22;10330;48.816;9.278;2023-08-07T08:27:17;14.90;99.90
20345;DHT22;10330;48.816;9.278;2023-08-07T08:29:43;14.90;99.90
20345;DHT22;10330;48.816;9.278;2023-08-07T08:32:11;15.00;99.90
20345;DHT22;10330;48.816;9.278;2023-08-07T08:34:37;15.00;99.90
20345;DHT22;10330;48.816;9.278;2023-08-07T08:37:03;15.00;99.90
20345;DHT22;10330;48.816;9.278;2023-08-07T08:39:31;15.20;99.90
20345;DHT22;10330;48.816;9.278;2023-08-07T08:41:59;15.20;99.90
20345;DHT22;10330;48.816;9.278;2023-08-07T08:44:26;15.30;99.90
20345;DHT22;10330;48.816;9.278;2023-08-07T08:46:59;15.20;99.90
20345;DHT22;10330;48.816;9.278;2023-08-07T08:49:32;15.20;99.90
20345;DHT22;10330;48.816;9.278;2023-08-07T08:51:59;15.30;99.90
20345;DHT22;10330;48.816;9.278;2023-08-07T08:54:26;15.40;99.90
20345;DHT22;10330;48.816;9.278;2023-08-07T08:56:52;15.50;99.90
20345;DHT22;10330;48.816;9.278;2023-08-07T08:59:20;15.70;99.90
20345;DHT22;10330;48.816;9.278;2023-08-07T09:01:49;15.80;99.90
20345;DHT22;10330;48.816;9.278;2023-08-07T09:04:19;15.80;99.90
20345;DHT22;10330;48.816;9.278;2023-08-07T09:06:46;15.70;99.90
20345;DHT22;10330;48.816;9.278;2023-08-07T09:09:13;15.70;99.90
20345;DHT22;10330;48.816;9.278;2023-08-07T09:11:45;15.80;99.90
20345;DHT22;10330;48.816;9.278;2023-08-07T09:14:19;15.90;99.90
20345;DHT22;10330;48.816;9.278;2023-08-07T09:16:51;15.80;99.90
20345;DHT22;10330;48.816;9.278;2023-08-07T09:19:17;15.90;99.90
20345;DHT22;10330;48.816;9.278;2023-08-07T09:21:46;15.80;99.90
20345;DHT22;10330;48.816;9.278;2023-08-07T09:26:51;16.30;99.90
20345;DHT22;10330;48.816;9.278;2023-08-07T09:29:20;16.20;99.90
20345;DHT22;10330;48.816;9.278;2023-08-07T09:31:46;16.20;99.90
20345;DHT22;10330;48.816;9.278;2023-08-07T09:34:13;16.20;99.90
20345;DHT22;10330;48.816;9.278;2023-08-07T09:36:42;16.40;99.90
20345;DHT22;10330;48.816;9.278;2023-08-07T09:39:08;16.50;99.90
20345;DHT22;10330;48.816;9.278;2023-08-07T09:41:36;16.50;99.90
20345;DHT22;10330;48.816;9.278;2023-08-07T09:44:09;16.20;99.90
20345;DHT22;10330;48.816;9.278;2023-08-07T09:46:43;16.50;99.90
20345;DHT22;10330;48.816;9.278;2023-08-07T09:49:10;16.60;99.90
20345;DHT22;10330;48.816;9.278;2023-08-07T09:51:46;16.60;99.90
20345;DHT22;10330;48.816;9.278;2023-08-07T09:54:12;16.50;99.90
20345;DHT22;10330;48.816;9.278;2023-08-07T09:56:40;16.40;99.90
20345;DHT22;10330;48.816;9.278;2023-08-07T09:59:07;16.30;99.90
20345;DHT22;10330;48.816;9.278;2023-08-07T10:01:36;16.50;99.90
20345;DHT22;10330;48.816;9.278;2023-08-07T10:04:05;16.60;99.90
20345;DHT22;10330;48.816;9.278;2023-08-07T10:06:31;16.80;99.90
20345;DHT22;10330;48.816;9.278;2023-08-07T10:08:57;16.70;99.90
20345;DHT22;10330;48.816;9.278;2023-08-07T10:11:25;16.70;99.90
20345;DHT22;10330;48.816;9.278;2023-08-07T10:13:53;16.60;99.90
20345;DHT22;10330;48.816;9.278;2023-08-07T10:16:20;16.40;99.90
20345;DHT22;10330;48.816;9.278;2023-08-07T10:18:46;16.40;99.90
20345;DHT22;10330;48.816;9.278;2023-08-07T10:21:13;16.60;99.90
20345;DHT22;10330;48.816;9.278;2023-08-07T10:23:40;17.10;99.90
20345;DHT22;10330;48.816;9.278;2023-08-07T10:26:09;17.30;99.90
20345;DHT22;10330;48.816;9.278;2023-08-07T10:28:39;16.90;99.90
20345;DHT22;10330;48.816;9.278;2023-08-07T10:31:09;16.70;99.90
20345;DHT22;10330;48.816;9.278;2023-08-07T10:33:37;16.80;99.90
20345;DHT22;10330;48.816;9.278;2023-08-07T10:36:09;16.80;99.90
20345;DHT22;10330;48.816;9.278;2023-08-07T10:38:38;16.90;99.90
20345;DHT22;10330;48.816;9.278;2023-08-07T10:41:14;16.90;99.90
20345;DHT22;10330;48.816;9.278;2023-08-07T10:43:42;17.10;99.90
20345;DHT22;10330;48.816;9.278;2023-08-07T10:46:16;17.20;99.90
20345;DHT22;10330;48.816;9.278;2023-08-07T10:48:46;17.00;99.90
20345;DHT22;10330;48.816;9.278;2023-08-07T10:51:15;17.20;99.90
20345;DHT22;10330;48.816;9.278;2023-08-07T10:53:47;17.00;99.90
20345;DHT22;10330;48.816;9.278;2023-08-07T10:56:28;17.00;99.90
20345;DHT22;10330;48.816;9.278;2023-08-07T10:58:55;17.00;99.90
20345;DHT22;10330;48.816;9.278;2023-08-07T11:03:58;17.00;99.90
20345;DHT22;10330;48.816;9.278;2023-08-07T11:06:30;17.20;99.90
20345;DHT22;10330;48.816;9.278;2023-08-07T11:09:00;17.10;99.90
20345;DHT22;10330;48.816;9.278;2023-08-07T11:11:36;17.10;99.90
20345;DHT22;10330;48.816;9.278;2023-08-07T11:14:09;17.00;99.90
20345;DHT22;10330;48.816;9.278;2023-08-07T11:16:37;17.00;99.90
20345;DHT22;10330;48.816;9.278;2023-08-07T11:19:04;16.90;99.90
20345;DHT22;10330;48.816;9.278;2023-08-07T11:21:31;16.80;99.90
20345;DHT22;10330;48.816;9.278;2023-08-07T11:23:58;16.60;99.90
20345;DHT22;10330;48.816;9.278;2023-08-07T11:26:24;16.40;99.90
20345;DHT22;10330;48.816;9.278;2023-08-07T11:28:52;16.40;99.90
20345;DHT22;10330;48.816;9.278;2023-08-07T11:31:18;16.30;99.90
20345;DHT22;10330;48.816;9.278;2023-08-07T11:33:45;16.40;99.90
20345;DHT22;10330;48.816;9.278;2023-08-07T11:36:14;16.40;99.90
20345;DHT22;10330;48.816;9.278;2023-08-07T11:38:42;16.40;99.90
20345;DHT22;10330;48.816;9.278;2023-08-07T11:41:10;16.50;99.90
20345;DHT22;10330;48.816;9.278;2023-08-07T11:43:40;16.50;99.90
20345;DHT22;10330;48.816;9.278;2023-08-07T11:46:12;16.50;99.90
20345;DHT22;10330;48.816;9.278;2023-08-07T11:48:41;16.70;99.90
20345;DHT22;10330;48.816;9.278;2023-08-07T11:51:07;16.70;99.90
20345;DHT22;10330;48.816;9.278;2023-08-07T11:53:36;16.50;99.90
20345;DHT22;10330;48.816;9.278;2023-08-07T11:56:08;16.40;99.90
20345;DHT22;10330;48.816;9.278;2023-08-07T11:58:42;16.30;99.90
20345;DHT22;10330;48.816;9.278;2023-08-07T12:01:15;16.40;99.90
20345;DHT22;10330;48.816;9.278;2023-08-07T12:03:51;16.30;99.90
20345;DHT22;10330;48.816;9.278;2023-08-07T12:06:17;16.30;99.90
20345;DHT22;10330;48.816;9.278;2023-08-07T12:08:44;16.30;99.90
20345;DHT22;10330;48.816;9.278;2023-08-07T12:11:12;16.20;99.90
20345;DHT22;10330;48.816;9.278;2023-08-07T12:13:40;16.30;99.90
20345;DHT22;10330;48.816;9.278;2023-08-07T12:16:07;16.30;99.90
20345;DHT22;10330;48.816;9.278;2023-08-07T12:18:34;16.30;99.90
20345;DHT22;10330;48.816;9.278;2023-08-07T12:21:03;16.30;99.90
20345;DHT22;10330;48.816;9.278;2023-08-07T12:23:33;16.30;99.90
20345;DHT22;10330;48.816;9.278;2023-08-07T12:26:00;16.40;99.90
20345;DHT22;10330;48.816;9.278;2023-08-07T12:28:26;16.50;99.90
20345;DHT22;10330;48.816;9.278;2023-08-07T12:30:53;16.60;99.90
20345;DHT22;10330;48.816;9.278;2023-08-07T12:33:20;16.60;99.90
20345;DHT22;10330;48.816;9.278;2023-08-07T12:35:46;16.60;99.90
20345;DHT22;10330;48.816;9.278;2023-08-07T12:38:12;16.50;99.90
20345;DHT22;10330;48.816;9.278;2023-08-07T12:40:41;16.80;99.90
20345;DHT22;10330;48.816;9.278;2023-08-07T12:43:07;16.80;99.90
20345;DHT22;10330;48.816;9.278;2023-08-07T12:45:34;16.80;99.90
20345;DHT22;10330;48.816;9.278;2023-08-07T12:48:00;16.80;99.90
20345;DHT22;10330;48.816;9.278;2023-08-07T12:50:28;16.80;99.90
20345;DHT22;10330;48.816;9.278;2023-08-07T12:52:57;16.90;99.90
20345;DHT22;10330;48.816;9.278;2023-08-07T12:55:25;16.70;99.90
20345;DHT22;10330;48.816;9.278;2023-08-07T12:57:52;16.70;99.90
20345;DHT22;10330;48.816;9.278;2023-08-07T13:00:19;16.90;99.90
20345;DHT22;10330;48.816;9.278;2023-08-07T13:02:47;17.00;99.90
20345;DHT22;10330;48.816;9.278;2023-08-07T13:05:14;17.30;99.90
20345;DHT22;10330;48.816;9.278;2023-08-07T13:07:41;17.40;99.90
20345;DHT22;10330;48.816;9.278;2023-08-07T13:10:09;17.20;99.90
20345;DHT22;10330;48.816;9.278;2023-08-07T13:12:37;17.10;99.90
20345;DHT22;10330;48.816;9.278;2023-08-07T13:15:04;17.00;99.90
20345;DHT22;10330;48.816;9.278;2023-08-07T13:17:34;17.00;99.90
20345;DHT22;10330;48.816;9.278;2023-08-07T13:20:03;17.00;99.90
20345;DHT22;10330;48.816;9.278;2023-08-07T13:22:37;17.00;99.90
20345;DHT22;10330;48.816;9.278;2023-08-07T13:25:04;16.90;99.90
20345;DHT22;10330;48.816;9.278;2023-08-07T13:27:32;16.90;99.90
20345;DHT22;10330;48.816;9.278;2023-08-07T13:29:58;17.10;99.90
20345;DHT22;10330;48.816;9.278;2023-08-07T13:32:25;17.00;99.90
20345;DHT22;10330;48.816;9.278;2023-08-07T13:34:51;17.00;99.90
20345;DHT22;10330;48.816;9.278;2023-08-07T13:37:18;17.00;99.90
20345;DHT22;10330;48.816;9.278;2023-08-07T13:39:45;17.30;99.90
20345;DHT22;10330;48.816;9.278;2023-08-07T13:42:11;17.60;99.90
20345;DHT22;10330;48.816;9.278;2023-08-07T13:44:37;18.00;99.90
20345;DHT22;10330;48.816;9.278;2023-08-07T13:47:04;18.10;99.90
20345;DHT22;10330;48.816;9.278;2023-08-07T13:49:31;18.40;99.90
20345;DHT22;10330;48.816;9.278;2023-08-07T13:51:57;18.60;99.90
20345;DHT22;10330;48.816;9.278;2023-08-07T13:54:23;18.70;99.90
20345;DHT22;10330;48.816;9.278;2023-08-07T13:56:49;19.00;99.90
20345;DHT22;10330;48.816;9.278;2023-08-07T13:59:16;19.10;99.90
20345;DHT22;10330;48.816;9.278;2023-08-07T14:01:45;18.80;99.90
20345;DHT22;10330;48.816;9.278;2023-08-07T14:04:11;18.60;99.90
20345;DHT22;10330;48.816;9.278;2023-08-07T14:06:37;18.40;99.90
20345;DHT22;10330;48.816;9.278;2023-08-07T14:09:07;18.40;99.90
20345;DHT22;10330;48.816;9.278;2023-08-07T14:11:35;18.20;99.90
20345;DHT22;10330;48.816;9.278;2023-08-07T14:14:01;18.20;99.90
20345;DHT22;10330;48.816;9.278;2023-08-07T14:16:28;18.00;99.90
20345;DHT22;10330;48.816;9.278;2023-08-07T14:18:54;18.00;99.90
20345;DHT22;10330;48.816;9.278;2023-08-07T14:21:20;18.00;99.90
20345;DHT22;10330;48.816;9.278;2023-08-07T14:23:50;18.10;99.90
20345;DHT22;10330;48.816;9.278;2023-08-07T14:26:18;18.20;99.90
20345;DHT22;10330;48.816;9.278;2023-08-07T14:28:46;19.10;99.90
20345;DHT22;10330;48.816;9.278;2023-08-07T14:31:13;19.80;99.90
20345;DHT22;10330;48.816;9.278;2023-08-07T14:33:39;19.60;99.90
20345;DHT22;10330;48.816;9.278;2023-08-07T14:36:05;19.00;99.90
20345;DHT22;10330;48.816;9.278;2023-08-07T14:38:31;18.60;99.90
20345;DHT22;10330;48.816;9.278;2023-08-07T14:40:58;18.10;99.90
20345;DHT22;10330;48.816;9.278;2023-08-07T14:43:29;18.00;99.90
20345;DHT22;10330;48.816;9.278;2023-08-07T14:45:55;18.00;99.90
20345;DHT22;10330;48.816;9.278;2023-08-07T14:48:22;18.10;99.90
20345;DHT22;10330;48.816;9.278;2023-08-07T14:50:48;18.20;99.90
20345;DHT22;10330;48.816;9.278;2023-08-07T14:53:14;18.50;99.90
20345;DHT22;10330;48.816;9.278;2023-08-07T14:55:40;18.90;99.90
20345;DHT22;10330;48.816;9.278;2023-08-07T14:58:07;19.50;99.90
20345;DHT22;10330;48.816;9.278;2023-08-07T15:00:35;20.30;99.90
20345;DHT22;10330;48.816;9.278;2023-08-07T15:03:01;20.80;99.90
20345;DHT22;10330;48.816;9.278;2023-08-07T15:05:28;21.50;99.90
20345;DHT22;10330;48.816;9.278;2023-08-07T15:07:54;20.90;99.90
20345;DHT22;10330;48.816;9.278;2023-08-07T15:10:21;19.90;99.90
20345;DHT22;10330;48.816;9.278;2023-08-07T15:12:48;19.30;99.90
20345;DHT22;10330;48.816;9.278;2023-08-07T15:15:23;19.20;99.90
20345;DHT22;10330;48.816;9.278;2023-08-07T15:17:52;19.10;99.90
20345;DHT22;10330;48.816;9.278;2023-08-07T15:20:21;18.80;99.90
20345;DHT22;10330;48.816;9.278;2023-08-07T15:22:48;18.70;99.90
20345;DHT22;10330;48.816;9.278;2023-08-07T15:25:14;18.50;99.90
20345;DHT22;10330;48.816;9.278;2023-08-07T15:27:41;18.30;99.90
20345;DHT22;10330;48.816;9.278;2023-08-07T15:30:07;18.10;99.90
20345;DHT22;10330;48.816;9.278;2023-08-07T15:32:34;17.90;99.90
20345;DHT22;10330;48.816;9.278;2023-08-07T15:35:08;17.90;99.90
20345;DHT22;10330;48.816;9.278;2023-08-07T15:37:34;17.90;99.90
20345;DHT22;10330;48.816;9.278;2023-08-07T15:40:01;17.90;99.90
20345;DHT22;10330;48.816;9.278;2023-08-07T15:42:30;18.00;99.90
20345;DHT22;10330;48.816;9.278;2023-08-07T15:44:59;18.20;99.90